Decoded Metar for PADM (MARSHALL in AK, USA) (IATA:N/A) | Meteo·Mobile Aviation Weather
aviador You're here:

PADM Decoded Metar

MARSHALL in AK, USA
Report Time2019-11-16 02:02:00
UTC Time2019-11-16 02:19:15
Flight Rules vfr VFR
Wind050° at 29 Gusting to 36 kt
W.Decomp.*RWY 07: 24.3 kt HW 15.8 kt LCW
Visibility9999 m
Phenomena:N/A
Clouds:N/A
Expected CloudBase > 2,400 ft AGL from Temp-Dew spread
CeilingNone
Temp-10°C (ISA -25)
Dew Point-16°C (62% RH)
AAT-23.9°C
QNH992 hPa
Density Alt-2,244 ft
Elevation102 ft
Report Wrong Elevation
Raw Report
PADM 160202Z AUTO 05029G36KT 10SM CLR M10/M16 A2930 RMK AO2 PK WND
04036/0157 SLP928 T11001161 FZRANO=

Extra information for PADM:More info

Metar Taf Metar & Taf Last 4 Metars F.Rules Stats Wind Profile Meteogram Temp Stats Airport Information Weather charts Add Link Nearby VenuesMetar ALERT Operation Metar Decoded Social comments

AIRNAV info for PADM